Time;durP1;ratioP1;P1;durP2;ratioP2;P2;SDS_P1;SDS_P2;PMS_P1;PMS_P2;Temp;Humidity;BMP_temperature;BMP_pressure;BME280_temperature;BME280_humidity;BME280_pressure;Samples;Min_cycle;Max_cycle;Signal;HPM_P1;HPM_P2
2021/06/18 00:01:13;;;;;;;12.60;11.50;;;18.70;99.90;;;;;;6174049;23;20171;-75
2021/06/18 00:03:41;;;;;;;12.27;11.15;;;18.70;99.90;;;;;;6172733;23;20198;-77
2021/06/18 00:06:08;;;;;;;13.00;11.70;;;18.70;99.90;;;;;;6173075;23;20888;-76
2021/06/18 00:08:36;;;;;;;12.07;11.02;;;18.70;99.90;;;;;;6174539;23;20182;-74
2021/06/18 00:11:03;;;;;;;11.88;10.88;;;18.70;99.90;;;;;;6172535;23;20237;-75
2021/06/18 00:13:30;;;;;;;11.30;10.27;;;18.60;99.90;;;;;;6173157;23;20189;-74
2021/06/18 00:15:56;;;;;;;12.48;11.38;;;18.60;99.90;;;;;;6172633;23;20182;-73
2021/06/18 00:18:24;;;;;;;12.20;11.07;;;18.70;99.90;;;;;;6177393;23;20174;-74
2021/06/18 00:20:52;;;;;;;12.60;11.48;;;18.70;99.90;;;;;;6177489;23;20206;-76
2021/06/18 00:23:20;;;;;;;12.80;11.70;;;18.70;99.90;;;;;;6175285;23;20899;-87
2021/06/18 00:25:46;;;;;;;12.15;11.02;;;18.70;99.90;;;;;;6174718;23;20175;-73
2021/06/18 00:28:13;;;;;;;11.45;10.52;;;18.70;99.90;;;;;;6175188;23;20170;-76
2021/06/18 00:30:42;;;;;;;11.02;10.10;;;18.80;99.90;;;;;;6175933;23;20823;-73
2021/06/18 00:33:09;;;;;;;11.18;10.23;;;18.80;99.90;;;;;;6175107;23;20178;-80
2021/06/18 00:35:36;;;;;;;11.52;10.52;;;18.80;99.90;;;;;;6175810;23;20588;-74
2021/06/18 00:38:04;;;;;;;9.68;8.88;;;18.80;99.90;;;;;;6176241;23;20182;-73
2021/06/18 00:40:31;;;;;;;13.10;12.00;;;18.80;99.90;;;;;;6174928;23;20179;-84
2021/06/18 00:42:58;;;;;;;13.98;12.85;;;18.90;99.90;;;;;;6176730;23;20780;-77
2021/06/18 00:45:25;;;;;;;13.80;12.63;;;18.90;99.90;;;;;;6176943;23;20179;-75
2021/06/18 00:47:55;;;;;;;13.45;12.35;;;18.90;99.90;;;;;;6175620;23;20170;-76
2021/06/18 00:50:22;;;;;;;15.70;14.30;;;18.90;99.90;;;;;;6175782;23;20171;-82
2021/06/18 00:52:49;;;;;;;17.15;15.60;;;18.90;99.90;;;;;;6175327;23;20167;-74
2021/06/18 00:55:17;;;;;;;14.70;13.30;;;18.90;99.90;;;;;;6174874;23;20253;-77
2021/06/18 00:57:44;;;;;;;17.15;15.45;;;19.00;99.90;;;;;;6175537;23;20372;-78
2021/06/18 01:00:12;;;;;;;14.43;13.18;;;19.00;99.90;;;;;;6173708;23;20560;-75
2021/06/18 01:02:40;;;;;;;15.50;14.10;;;18.90;99.90;;;;;;6175386;23;20175;-72
2021/06/18 01:05:09;;;;;;;14.43;13.13;;;18.90;99.90;;;;;;6174985;23;20851;-73
2021/06/18 01:07:44;;;;;;;16.50;15.00;;;18.90;99.90;;;;;;6173756;23;20710;-72
2021/06/18 01:10:18;;;;;;;16.38;14.90;;;18.90;99.90;;;;;;6175744;23;20167;-75
2021/06/18 01:12:56;;;;;;;15.13;13.73;;;18.90;99.90;;;;;;6174630;23;20773;-77
2021/06/18 01:15:32;;;;;;;15.23;14.00;;;18.90;99.90;;;;;;6173672;23;20638;-74
2021/06/18 01:18:05;;;;;;;17.42;15.93;;;18.90;99.90;;;;;;6173359;23;20170;-74
2021/06/18 01:20:44;;;;;;;16.58;15.07;;;18.90;99.90;;;;;;6174465;23;20221;-75
2021/06/18 01:23:24;;;;;;;18.42;16.73;;;18.90;99.90;;;;;;6174362;23;20166;-76
2021/06/18 01:25:58;;;;;;;18.13;16.52;;;19.00;99.90;;;;;;6173794;23;20169;-77
2021/06/18 01:28:39;;;;;;;19.90;18.00;;;19.00;99.90;;;;;;6173355;23;20186;-77
2021/06/18 01:31:09;;;;;;;19.63;17.73;;;19.00;99.90;;;;;;6173966;23;20170;-75
2021/06/18 01:33:37;;;;;;;19.05;17.30;;;19.10;99.90;;;;;;6174269;23;20174;-80
2021/06/18 01:36:08;;;;;;;21.45;19.35;;;19.10;99.90;;;;;;6174141;23;20293;-73
2021/06/18 01:38:39;;;;;;;22.77;20.38;;;19.10;99.90;;;;;;6174643;23;20226;-74
2021/06/18 01:41:09;;;;;;;19.63;17.77;;;19.10;99.90;;;;;;6174570;23;20233;-75
2021/06/18 01:43:38;;;;;;;19.83;17.88;;;19.10;99.90;;;;;;6174673;23;20266;-75
2021/06/18 01:46:07;;;;;;;21.65;19.45;;;19.20;99.90;;;;;;6175085;23;20163;-75
2021/06/18 01:48:35;;;;;;;20.55;18.60;;;19.10;99.90;;;;;;6176513;23;20197;-76
2021/06/18 01:51:02;;;;;;;20.48;18.58;;;19.10;99.90;;;;;;6175093;23;20179;-76
2021/06/18 01:53:31;;;;;;;21.85;19.65;;;19.10;99.90;;;;;;6174675;23;20336;-78
2021/06/18 01:55:59;;;;;;;20.00;18.05;;;19.20;99.90;;;;;;6174400;23;20179;-81
2021/06/18 01:58:29;;;;;;;21.08;19.08;;;19.20;99.90;;;;;;6174940;23;20227;-75
2021/06/18 02:00:57;;;;;;;19.50;17.70;;;19.20;99.90;;;;;;6174967;23;20175;-75
2021/06/18 02:03:27;;;;;;;18.17;16.20;;;19.20;99.90;;;;;;6174347;23;20175;-82
2021/06/18 02:05:58;;;;;;;17.73;16.02;;;19.20;99.90;;;;;;6174197;23;20178;-76
2021/06/18 02:08:26;;;;;;;18.92;17.23;;;19.20;99.90;;;;;;6173690;23;20169;-76
2021/06/18 02:10:53;;;;;;;22.80;20.15;;;19.20;99.90;;;;;;6172999;23;20457;-76
2021/06/18 02:13:22;;;;;;;21.67;19.42;;;19.30;99.90;;;;;;6181804;23;20171;-85
2021/06/18 02:15:49;;;;;;;22.15;19.85;;;19.30;99.90;;;;;;6180503;23;20181;-84
2021/06/18 02:18:22;;;;;;;21.08;18.60;;;19.30;99.90;;;;;;6179761;23;20159;-81
2021/06/18 02:20:53;;;;;;;18.80;16.88;;;19.30;99.90;;;;;;6180928;23;20245;-83
2021/06/18 02:23:22;;;;;;;22.92;20.55;;;19.30;99.90;;;;;;6179847;23;20261;-83
2021/06/18 02:25:50;;;;;;;21.95;19.75;;;19.30;99.90;;;;;;6181679;23;20190;-85
2021/06/18 02:28:19;;;;;;;27.23;24.42;;;19.30;99.90;;;;;;6185112;23;20167;-78
2021/06/18 02:30:45;;;;;;;27.25;24.38;;;19.30;99.90;;;;;;6189387;23;20186;-76
2021/06/18 02:33:12;;;;;;;26.45;23.77;;;19.30;99.90;;;;;;6180313;23;20175;-76
2021/06/18 02:35:42;;;;;;;24.83;22.50;;;19.30;99.90;;;;;;6178010;23;20191;-77
2021/06/18 02:38:11;;;;;;;21.17;18.67;;;19.20;99.90;;;;;;6176997;23;20773;-76
2021/06/18 02:40:38;;;;;;;25.92;23.25;;;19.20;99.90;;;;;;6175133;23;20441;-76
2021/06/18 02:43:06;;;;;;;24.17;21.73;;;19.20;99.90;;;;;;6173158;23;20190;-81
2021/06/18 02:45:33;;;;;;;28.75;25.85;;;19.20;99.90;;;;;;6174159;23;20914;-80
2021/06/18 02:48:06;;;;;;;30.88;27.58;;;19.30;99.90;;;;;;6174899;23;20178;-75
2021/06/18 02:50:39;;;;;;;30.52;25.90;;;19.20;99.90;;;;;;6175185;23;20835;-79
2021/06/18 02:53:21;;;;;;;23.05;20.58;;;19.20;99.90;;;;;;6174118;23;20177;-77
2021/06/18 02:55:51;;;;;;;24.15;21.65;;;19.30;99.90;;;;;;6173735;23;20207;-78
2021/06/18 02:58:22;;;;;;;22.63;20.35;;;19.30;99.90;;;;;;6173158;23;20175;-79
2021/06/18 03:00:50;;;;;;;26.05;23.40;;;19.20;99.90;;;;;;6173600;23;20642;-78
2021/06/18 03:03:21;;;;;;;23.05;20.52;;;19.30;99.90;;;;;;6174914;23;20171;-78
2021/06/18 03:05:50;;;;;;;23.85;21.33;;;19.30;99.90;;;;;;6173842;23;20249;-77
2021/06/18 03:08:20;;;;;;;33.53;29.33;;;19.30;99.90;;;;;;6173153;23;20182;-81
2021/06/18 03:10:51;;;;;;;25.05;22.42;;;19.30;99.90;;;;;;6173136;23;20170;-78
2021/06/18 03:13:21;;;;;;;29.23;26.13;;;19.30;99.90;;;;;;6173413;23;20171;-78
2021/06/18 03:15:49;;;;;;;31.65;28.20;;;19.30;99.90;;;;;;6173448;23;20168;-78
2021/06/18 03:18:19;;;;;;;34.30;30.58;;;19.30;99.90;;;;;;6172917;23;20171;-80
2021/06/18 03:20:47;;;;;;;31.77;27.92;;;19.30;99.90;;;;;;6172798;23;20217;-76
2021/06/18 03:23:16;;;;;;;32.67;28.30;;;19.20;99.90;;;;;;6173016;23;20178;-78
2021/06/18 03:25:44;;;;;;;34.08;30.55;;;19.20;99.90;;;;;;6174600;23;20190;-79
2021/06/18 03:28:12;;;;;;;34.05;30.48;;;19.20;99.90;;;;;;6173627;23;20175;-81
2021/06/18 03:30:40;;;;;;;33.55;29.95;;;19.20;99.90;;;;;;6175040;23;20174;-80
2021/06/18 03:33:08;;;;;;;37.70;32.13;;;19.20;99.90;;;;;;6174631;23;20166;-77
2021/06/18 03:35:38;;;;;;;37.88;33.00;;;19.20;99.90;;;;;;6173509;23;20199;-81
2021/06/18 03:38:05;;;;;;;36.97;32.78;;;19.20;99.90;;;;;;6173842;23;20171;-79
2021/06/18 03:40:34;;;;;;;35.50;31.67;;;19.10;99.90;;;;;;6174141;23;20715;-77
2021/06/18 03:43:03;;;;;;;35.95;31.92;;;19.10;99.90;;;;;;6173133;23;20175;-79
2021/06/18 03:45:30;;;;;;;37.85;33.78;;;19.20;99.90;;;;;;6173672;23;20198;-80
2021/06/18 03:47:59;;;;;;;35.97;32.17;;;19.20;99.90;;;;;;6173494;23;20175;-81
2021/06/18 03:50:27;;;;;;;39.78;35.45;;;19.20;99.90;;;;;;6173008;23;20235;-76
2021/06/18 03:52:54;;;;;;;39.47;35.05;;;19.20;99.90;;;;;;6173647;23;20232;-79
2021/06/18 03:55:21;;;;;;;40.65;34.28;;;19.10;99.90;;;;;;6175283;23;20567;-80
2021/06/18 03:57:50;;;;;;;39.83;34.95;;;19.10;99.90;;;;;;6174595;23;20178;-80
2021/06/18 04:00:20;;;;;;;45.92;38.92;;;19.20;99.90;;;;;;6175486;23;20535;-78
2021/06/18 04:02:48;;;;;;;40.85;36.38;;;19.10;99.90;;;;;;6174863;23;20642;-80
2021/06/18 04:05:17;;;;;;;44.17;39.28;;;19.20;99.90;;;;;;6175369;23;20187;-79
2021/06/18 04:07:47;;;;;;;40.50;36.10;;;19.20;99.90;;;;;;6174623;23;20174;-77
2021/06/18 04:10:15;;;;;;;47.90;42.78;;;19.20;99.90;;;;;;6173495;23;20638;-78
2021/06/18 04:12:43;;;;;;;50.67;42.30;;;19.10;99.90;;;;;;6175295;23;20167;-77
2021/06/18 04:15:11;;;;;;;42.75;37.58;;;19.10;99.90;;;;;;6175377;23;20174;-80
2021/06/18 04:17:41;;;;;;;47.70;40.53;;;19.10;99.90;;;;;;6161755;23;20174;-79
2021/06/18 04:20:09;;;;;;;44.50;38.20;;;19.10;99.90;;;;;;6174735;23;20214;-79
2021/06/18 04:22:36;;;;;;;38.95;33.90;;;19.10;99.90;;;;;;6175652;23;20179;-79
2021/06/18 04:25:04;;;;;;;47.03;41.88;;;19.10;99.90;;;;;;6173418;23;20684;-79
2021/06/18 04:27:32;;;;;;;47.50;38.25;;;19.20;99.90;;;;;;6175061;23;20183;-80
2021/06/18 04:29:59;;;;;;;51.08;45.63;;;19.20;99.90;;;;;;6174656;23;20166;-78
2021/06/18 04:32:26;;;;;;;41.33;36.53;;;19.20;99.90;;;;;;6173815;23;20190;-79
2021/06/18 04:34:54;;;;;;;52.53;43.70;;;19.20;99.90;;;;;;6174379;23;20191;-81
2021/06/18 04:37:21;;;;;;;48.08;42.95;;;19.20;99.90;;;;;;6174510;23;20175;-78
2021/06/18 04:39:48;;;;;;;56.58;50.17;;;19.20;99.90;;;;;;6172418;23;20183;-78
2021/06/18 04:42:15;;;;;;;55.47;47.85;;;19.20;99.90;;;;;;6175350;23;20181;-79
2021/06/18 04:44:42;;;;;;;52.30;45.50;;;19.20;99.90;;;;;;6175404;23;20198;-78
2021/06/18 04:47:09;;;;;;;56.65;49.08;;;19.20;99.90;;;;;;6174187;23;20178;-77
2021/06/18 04:49:36;;;;;;;52.75;47.13;;;19.20;99.90;;;;;;6173949;23;20633;-78
2021/06/18 04:52:06;;;;;;;56.67;50.13;;;19.20;99.90;;;;;;6172878;23;20171;-79
2021/06/18 04:54:33;;;;;;;56.63;48.92;;;19.20;99.90;;;;;;6174858;23;20167;-78
2021/06/18 04:57:00;;;;;;;61.67;53.17;;;19.20;99.90;;;;;;6174020;23;20159;-79
2021/06/18 04:59:27;;;;;;;57.28;51.05;;;19.20;99.90;;;;;;6173955;23;20167;-79
2021/06/18 05:01:53;;;;;;;62.85;54.65;;;19.20;99.90;;;;;;6173952;23;20462;-78
2021/06/18 05:04:20;;;;;;;81.15;64.45;;;19.20;99.90;;;;;;6173963;23;20186;-78
2021/06/18 05:06:48;;;;;;;66.38;56.67;;;19.20;99.90;;;;;;6173389;23;20178;-79
2021/06/18 05:09:16;;;;;;;71.95;58.88;;;19.10;99.90;;;;;;6173878;23;20174;-79
2021/06/18 05:11:42;;;;;;;68.65;60.85;;;19.20;99.90;;;;;;6174581;23;20175;-78
2021/06/18 05:14:09;;;;;;;73.65;62.55;;;19.20;99.90;;;;;;6172955;23;20181;-77
2021/06/18 05:16:38;;;;;;;78.00;65.13;;;19.20;99.90;;;;;;6173952;23;20171;-78
2021/06/18 05:19:06;;;;;;;82.30;69.93;;;19.10;99.90;;;;;;6174140;23;20233;-79
2021/06/18 05:21:33;;;;;;;78.13;68.80;;;19.10;99.90;;;;;;6172432;23;20177;-78
2021/06/18 05:24:00;;;;;;;80.45;66.53;;;19.10;99.90;;;;;;6173910;23;20223;-78
2021/06/18 05:26:30;;;;;;;80.85;69.53;;;19.10;99.90;;;;;;6173190;23;20195;-78
2021/06/18 05:28:57;;;;;;;79.70;70.03;;;19.20;99.90;;;;;;6173077;23;20182;-79
2021/06/18 05:31:23;;;;;;;81.07;67.43;;;19.20;99.90;;;;;;6173745;23;20181;-79
2021/06/18 05:33:50;;;;;;;78.13;68.10;;;19.10;99.90;;;;;;6173716;23;20194;-77
2021/06/18 05:36:17;;;;;;;77.40;66.45;;;19.20;99.90;;;;;;6174483;23;20195;-78
2021/06/18 05:38:44;;;;;;;93.95;78.88;;;19.20;99.90;;;;;;6174465;23;20186;-79
2021/06/18 05:41:11;;;;;;;89.55;77.68;;;19.20;99.90;;;;;;6173552;23;20163;-80
2021/06/18 05:43:39;;;;;;;84.57;74.18;;;19.20;99.90;;;;;;6174904;23;20178;-79
2021/06/18 05:46:06;;;;;;;91.28;78.82;;;19.20;99.90;;;;;;6174955;23;20195;-79
2021/06/18 05:48:33;;;;;;;83.80;74.65;;;19.20;99.90;;;;;;6174277;23;20186;-77
2021/06/18 05:50:59;;;;;;;87.00;73.75;;;19.20;99.90;;;;;;6174532;23;20166;-79
2021/06/18 05:53:26;;;;;;;96.35;78.00;;;19.20;99.90;;;;;;6174123;23;20175;-79
2021/06/18 05:55:53;;;;;;;87.90;73.43;;;19.30;99.90;;;;;;6173617;23;20171;-77
2021/06/18 05:58:20;;;;;;;99.07;82.25;;;19.30;99.90;;;;;;6174717;23;20197;-79
2021/06/18 06:00:48;;;;;;;87.55;76.03;;;19.40;99.90;;;;;;6173090;23;20631;-80
2021/06/18 06:03:15;;;;;;;101.30;84.25;;;19.40;99.90;;;;;;6174255;23;20170;-76
2021/06/18 06:05:41;;;;;;;86.13;74.32;;;19.40;99.90;;;;;;6173389;23;20206;-75
2021/06/18 06:08:12;;;;;;;93.32;76.53;;;19.50;99.90;;;;;;6173519;23;20167;-77
2021/06/18 06:10:39;;;;;;;84.20;74.90;;;19.50;99.90;;;;;;6172529;23;20191;-77
2021/06/18 06:13:06;;;;;;;86.55;75.90;;;19.50;99.90;;;;;;6173351;23;20185;-76
2021/06/18 06:15:33;;;;;;;83.97;74.28;;;19.50;99.90;;;;;;6173264;23;20171;-77
2021/06/18 06:18:02;;;;;;;93.60;78.32;;;19.60;99.90;;;;;;6172623;23;20179;-77
2021/06/18 06:20:28;;;;;;;81.55;69.43;;;19.60;99.90;;;;;;6172873;23;20679;-78
2021/06/18 06:22:55;;;;;;;76.45;66.57;;;19.60;99.90;;;;;;6173668;23;20174;-78
2021/06/18 06:25:22;;;;;;;82.82;68.53;;;19.70;99.90;;;;;;6172448;23;20195;-78
2021/06/18 06:27:49;;;;;;;78.07;68.60;;;19.70;99.90;;;;;;6173669;23;20182;-79
2021/06/18 06:30:16;;;;;;;74.68;65.50;;;19.70;99.90;;;;;;6172879;23;20179;-77
2021/06/18 06:32:43;;;;;;;82.97;69.30;;;19.80;99.90;;;;;;6174132;23;20425;-77
2021/06/18 06:35:12;;;;;;;78.13;64.60;;;19.70;99.90;;;;;;6173443;23;20187;-76
2021/06/18 06:37:39;;;;;;;80.85;68.05;;;19.80;99.90;;;;;;6172908;23;20425;-76
2021/06/18 06:40:07;;;;;;;79.93;67.85;;;19.80;99.90;;;;;;6172791;23;20201;-78
2021/06/18 06:42:34;;;;;;;75.35;67.10;;;19.80;99.90;;;;;;6173671;23;20258;-76
2021/06/18 06:45:01;;;;;;;70.53;62.45;;;19.80;99.90;;;;;;6172635;23;20580;-78
2021/06/18 06:47:27;;;;;;;75.00;63.80;;;19.90;99.90;;;;;;6173404;23;20183;-78
2021/06/18 06:49:54;;;;;;;66.35;58.88;;;19.90;99.90;;;;;;6174084;23;20181;-77
2021/06/18 06:52:22;;;;;;;72.60;64.50;;;20.00;99.90;;;;;;6173763;23;20167;-78
2021/06/18 06:54:49;;;;;;;73.18;63.05;;;20.00;99.90;;;;;;6173540;23;20202;-78
2021/06/18 06:57:18;;;;;;;63.80;53.90;;;20.00;99.90;;;;;;6173196;23;20170;-79
2021/06/18 06:59:44;;;;;;;63.97;57.03;;;20.10;99.90;;;;;;6173066;23;20282;-79
2021/06/18 07:02:12;;;;;;;73.40;64.35;;;20.10;99.90;;;;;;6173988;23;20175;-79
2021/06/18 07:04:40;;;;;;;71.85;63.83;;;20.20;99.90;;;;;;6175291;23;20445;-78
2021/06/18 07:07:06;;;;;;;70.57;62.25;;;20.10;99.90;;;;;;6172931;23;20194;-78
2021/06/18 07:09:38;;;;;;;67.55;58.78;;;20.20;99.90;;;;;;6173671;23;20181;-79
2021/06/18 07:12:05;;;;;;;65.55;56.80;;;20.30;99.90;;;;;;6174147;23;20173;-77
2021/06/18 07:14:32;;;;;;;61.13;54.20;;;20.30;99.90;;;;;;6181785;23;20170;-77
2021/06/18 07:16:59;;;;;;;55.28;49.20;;;20.40;99.90;;;;;;6178194;23;20181;-76
2021/06/18 07:19:26;;;;;;;56.45;50.55;;;20.40;99.90;;;;;;6171109;23;20213;-76
2021/06/18 07:21:52;;;;;;;53.13;47.25;;;20.50;99.90;;;;;;6173626;23;20173;-77
2021/06/18 07:24:19;;;;;;;54.05;47.78;;;20.50;99.90;;;;;;6173245;23;20178;-77
2021/06/18 07:26:47;;;;;;;45.75;40.88;;;20.60;99.90;;;;;;6171349;23;20846;-77
2021/06/18 07:29:14;;;;;;;50.55;45.30;;;20.70;99.90;;;;;;6170145;23;20193;-76
2021/06/18 07:31:42;;;;;;;48.28;43.45;;;20.80;99.90;;;;;;6172263;23;20175;-78
2021/06/18 07:34:09;;;;;;;43.80;39.13;;;20.90;99.90;;;;;;6171219;23;20571;-77
2021/06/18 07:36:36;;;;;;;44.50;39.92;;;21.00;99.90;;;;;;6130407;23;20214;-75
2021/06/18 07:39:04;;;;;;;40.30;36.38;;;21.10;99.90;;;;;;6173956;23;20167;-76
2021/06/18 07:41:31;;;;;;;41.03;37.03;;;21.20;99.90;;;;;;6172697;23;20174;-78
2021/06/18 07:43:59;;;;;;;36.65;32.95;;;21.20;99.90;;;;;;6172909;23;20803;-75
2021/06/18 07:46:29;;;;;;;37.38;33.83;;;21.20;99.90;;;;;;6171824;23;20194;-75
2021/06/18 07:48:56;;;;;;;34.45;31.27;;;21.40;99.90;;;;;;6171912;23;20171;-76
2021/06/18 07:54:47;;;;;;;30.83;27.05;;;21.60;99.90;;;;;;6112829;23;20175;-77
2021/06/18 07:57:16;;;;;;;28.10;25.40;;;21.70;99.90;;;;;;6172125;23;20752;-77
2021/06/18 07:59:44;;;;;;;33.20;30.05;;;21.80;99.90;;;;;;6172261;23;20425;-78
2021/06/18 08:02:11;;;;;;;25.85;23.38;;;21.80;99.90;;;;;;6175683;23;20174;-78
2021/06/18 08:04:37;;;;;;;30.30;27.65;;;21.90;99.90;;;;;;6172749;23;20201;-78
2021/06/18 08:07:04;;;;;;;25.52;23.02;;;21.80;99.90;;;;;;6171749;23;20591;-78
2021/06/18 08:09:31;;;;;;;26.60;24.10;;;21.90;99.90;;;;;;6171147;23;20175;-76
2021/06/18 08:11:58;;;;;;;30.08;27.13;;;21.90;99.90;;;;;;6173158;23;20185;-78
2021/06/18 08:14:24;;;;;;;28.98;26.40;;;21.90;99.90;;;;;;6172564;23;20182;-76
2021/06/18 08:16:53;;;;;;;23.83;21.48;;;21.90;99.90;;;;;;6171889;23;20171;-79
2021/06/18 08:19:19;;;;;;;27.88;25.17;;;21.90;99.90;;;;;;6171718;23;20178;-79
2021/06/18 08:21:46;;;;;;;28.52;26.00;;;21.90;99.90;;;;;;6172469;23;20174;-80
2021/06/18 08:24:13;;;;;;;25.92;23.58;;;21.90;99.90;;;;;;6172370;23;20175;-79
2021/06/18 08:26:40;;;;;;;30.10;27.40;;;21.90;99.90;;;;;;6172926;23;20198;-79
2021/06/18 08:29:07;;;;;;;28.25;25.55;;;21.80;99.90;;;;;;6171966;23;20163;-79
2021/06/18 08:31:35;;;;;;;29.98;27.02;;;21.80;99.90;;;;;;6169326;23;20174;-77
2021/06/18 08:34:03;;;;;;;30.40;27.60;;;21.80;99.90;;;;;;6171630;23;20182;-78
2021/06/18 08:36:30;;;;;;;25.30;22.98;;;21.90;99.90;;;;;;6171280;23;20198;-78
2021/06/18 08:38:56;;;;;;;30.42;27.60;;;21.90;99.90;;;;;;6170807;23;20631;-78
2021/06/18 08:41:23;;;;;;;27.48;24.75;;;22.00;99.90;;;;;;6173225;23;20197;-77
2021/06/18 08:43:50;;;;;;;29.05;26.42;;;22.20;99.90;;;;;;6172617;23;20183;-78
2021/06/18 08:46:17;;;;;;;28.52;25.85;;;22.30;99.90;;;;;;6170771;23;20202;-78
2021/06/18 08:48:44;;;;;;;29.38;26.63;;;22.30;99.90;;;;;;6173075;23;20261;-78
2021/06/18 08:51:13;;;;;;;29.90;27.13;;;22.30;99.90;;;;;;6172837;23;20186;-78
2021/06/18 08:53:42;;;;;;;32.38;29.30;;;22.30;99.90;;;;;;6173034;23;20186;-79
2021/06/18 08:56:12;;;;;;;31.27;28.05;;;22.30;99.90;;;;;;6172962;23;20194;-78
2021/06/18 08:58:39;;;;;;;28.13;25.63;;;22.20;99.90;;;;;;6172371;23;20217;-78
2021/06/18 09:01:07;;;;;;;29.23;26.63;;;22.30;99.90;;;;;;6173585;23;20179;-78
2021/06/18 09:03:41;;;;;;;32.42;29.42;;;22.60;99.90;;;;;;6173817;23;20210;-77
2021/06/18 09:06:31;;;;;;;32.25;29.35;;;23.10;99.90;;;;;;6172350;23;20255;-78
2021/06/18 09:09:19;;;;;;;38.00;34.45;;;23.40;99.90;;;;;;6172009;23;20187;-78
2021/06/18 09:11:48;;;;;;;38.45;34.72;;;23.60;99.90;;;;;;6172142;23;20514;-77
2021/06/18 09:14:21;;;;;;;33.83;30.73;;;23.70;99.90;;;;;;6171511;23;20182;-78
2021/06/18 09:17:19;;;;;;;34.80;31.58;;;23.90;99.90;;;;;;6173858;23;20185;-80
2021/06/18 09:19:49;;;;;;;31.05;28.25;;;24.20;99.90;;;;;;6081671;23;20196;-75
2021/06/18 09:22:19;;;;;;;28.55;25.88;;;24.40;99.90;;;;;;6155003;23;20189;-77
2021/06/18 09:24:48;;;;;;;27.92;25.10;;;24.50;99.90;;;;;;6173504;23;20182;-79
2021/06/18 09:27:16;;;;;;;24.23;22.00;;;24.60;99.90;;;;;;6172697;23;20203;-78
2021/06/18 09:29:43;;;;;;;24.58;22.38;;;24.70;99.90;;;;;;6174029;23;20182;-77
2021/06/18 09:32:12;;;;;;;24.75;22.45;;;24.90;99.90;;;;;;6173489;23;20189;-78
2021/06/18 09:34:51;;;;;;;22.88;20.88;;;25.30;99.90;;;;;;6173319;23;20191;-78
2021/06/18 09:37:28;;;;;;;24.38;22.17;;;25.40;99.90;;;;;;6172568;23;20657;-76
2021/06/18 09:40:14;;;;;;;23.45;21.15;;;25.60;99.90;;;;;;6172488;23;20245;-78
2021/06/18 09:42:57;;;;;;;23.42;21.10;;;25.70;99.90;;;;;;6173810;23;20188;-79
2021/06/18 09:45:25;;;;;;;24.65;22.35;;;26.00;99.90;;;;;;6174201;23;20189;-78
2021/06/18 09:47:53;;;;;;;25.05;22.80;;;26.10;99.90;;;;;;6171925;23;20198;-76
2021/06/18 09:50:29;;;;;;;25.13;22.83;;;26.20;99.90;;;;;;6172374;23;20602;-80
2021/06/18 09:53:17;;;;;;;24.50;21.90;;;26.20;99.90;;;;;;6172347;23;20298;-77
2021/06/18 09:55:46;;;;;;;20.40;18.60;;;26.40;99.90;;;;;;6172620;23;20273;-76
2021/06/18 09:58:14;;;;;;;17.55;15.75;;;26.40;99.90;;;;;;6173497;23;20186;-79
2021/06/18 10:00:41;;;;;;;16.23;14.60;;;26.50;99.90;;;;;;6173868;23;20190;-76
2021/06/18 10:03:11;;;;;;;19.23;17.42;;;26.60;99.90;;;;;;6172357;23;20193;-78
2021/06/18 10:05:39;;;;;;;17.13;15.63;;;26.70;99.90;;;;;;6173261;23;20237;-76
2021/06/18 10:08:07;;;;;;;15.70;14.30;;;27.00;99.90;;;;;;6172582;23;20199;-74
2021/06/18 10:10:38;;;;;;;18.60;16.95;;;27.20;99.90;;;;;;6173393;23;20257;-77
2021/06/18 10:13:05;;;;;;;18.55;16.85;;;27.20;99.90;;;;;;6174005;23;20186;-82
2021/06/18 10:15:37;;;;;;;18.33;16.73;;;27.30;99.90;;;;;;6174035;23;20326;-81
2021/06/18 10:18:09;;;;;;;16.17;14.88;;;27.30;99.90;;;;;;6175919;23;20217;-75
2021/06/18 10:20:35;;;;;;;15.45;13.98;;;27.20;99.90;;;;;;6175266;23;20242;-76
2021/06/18 10:23:06;;;;;;;15.70;14.32;;;27.10;99.90;;;;;;6173553;23;20190;-77
2021/06/18 10:25:38;;;;;;;17.05;15.50;;;27.20;99.90;;;;;;6174022;23;20190;-76
2021/06/18 10:28:06;;;;;;;17.20;15.57;;;27.30;99.90;;;;;;6174450;23;20205;-75
2021/06/18 10:30:44;;;;;;;13.82;12.60;;;27.40;99.90;;;;;;6173890;23;20175;-82
2021/06/18 10:33:34;;;;;;;16.38;14.85;;;27.30;99.90;;;;;;6174418;23;20182;-83
2021/06/18 10:36:02;;;;;;;14.98;13.68;;;27.40;99.90;;;;;;6170621;23;20195;-80
2021/06/18 10:38:32;;;;;;;13.73;12.43;;;27.40;99.90;;;;;;6172767;23;20175;-83
2021/06/18 10:41:02;;;;;;;12.73;11.27;;;27.40;99.90;;;;;;6173963;23;20178;-83
2021/06/18 10:43:40;;;;;;;13.38;12.15;;;27.70;99.90;;;;;;6172678;23;20167;-82
2021/06/18 10:46:15;;;;;;;11.52;10.40;;;27.60;99.90;;;;;;6172771;23;20180;-79
2021/06/18 10:49:03;;;;;;;9.70;8.80;;;27.60;99.90;;;;;;6174416;23;20258;-83
2021/06/18 10:51:51;;;;;;;10.88;9.77;;;27.80;99.90;;;;;;6173253;23;20518;-83
2021/06/18 10:54:30;;;;;;;10.93;10.02;;;28.10;99.90;;;;;;6174751;23;20459;-84
2021/06/18 10:57:18;;;;;;;10.38;9.45;;;28.40;99.90;;;;;;6173908;23;20498;-79
2021/06/18 10:59:47;;;;;;;12.32;11.25;;;28.70;99.90;;;;;;6172382;23;20175;-83
2021/06/18 11:02:47;;;;;;;12.85;11.65;;;28.50;99.90;;;;;;6173119;23;20166;-80
2021/06/18 11:05:35;;;;;;;12.40;11.10;;;28.40;99.90;;;;;;6173316;23;20248;-82
2021/06/18 11:08:19;;;;;;;15.02;13.32;;;28.30;99.90;;;;;;6173602;23;20261;-81
2021/06/18 11:10:46;;;;;;;12.65;11.55;;;28.10;99.90;;;;;;6173462;23;20552;-77
2021/06/18 11:13:17;;;;;;;13.68;12.38;;;27.70;99.90;;;;;;6172644;23;20171;-83
2021/06/18 11:15:45;;;;;;;14.23;12.93;;;27.80;99.90;;;;;;6172540;23;20171;-81
2021/06/18 11:18:15;;;;;;;12.93;11.73;;;27.60;99.90;;;;;;6172252;23;20171;-81
2021/06/18 11:20:58;;;;;;;14.45;13.25;;;27.30;99.90;;;;;;6170639;23;20305;-80
2021/06/18 11:23:27;;;;;;;17.27;15.57;;;27.10;99.90;;;;;;6173768;23;20170;-81
2021/06/18 11:25:57;;;;;;;15.77;14.35;;;27.00;99.90;;;;;;6172097;23;20180;-79
2021/06/18 11:28:55;;;;;;;17.80;16.08;;;26.80;99.90;;;;;;6172446;23;20958;-78
2021/06/18 11:31:50;;;;;;;16.02;14.52;;;26.70;99.90;;;;;;6053080;23;20270;-82
2021/06/18 11:34:28;;;;;;;16.83;15.38;;;26.60;99.90;;;;;;6167974;23;20179;-78
2021/06/18 11:36:57;;;;;;;19.58;17.67;;;26.70;99.90;;;;;;6174048;23;20179;-82
2021/06/18 11:39:26;;;;;;;19.10;17.15;;;26.70;99.90;;;;;;6173652;23;20171;-80
2021/06/18 11:42:02;;;;;;;17.77;16.05;;;26.90;99.90;;;;;;6146940;23;20178;-80
2021/06/18 11:44:30;;;;;;;18.75;17.15;;;27.00;99.90;;;;;;6172558;23;20194;-78
2021/06/18 11:46:58;;;;;;;19.60;17.70;;;27.00;99.90;;;;;;6172581;23;20198;-79
2021/06/18 11:49:34;;;;;;;19.65;17.75;;;26.80;99.90;;;;;;6172811;23;20646;-78
2021/06/18 11:52:10;;;;;;;18.77;16.90;;;26.70;99.90;;;;;;6172809;23;20403;-80
2021/06/18 11:54:42;;;;;;;18.55;16.90;;;26.70;99.90;;;;;;6173057;23;20171;-78
2021/06/18 12:00:01;;;;;;;20.73;18.83;;;26.70;99.90;;;;;;6169264;23;20182;-77
2021/06/18 12:02:33;;;;;;;21.92;19.65;;;26.50;99.90;;;;;;6171873;23;20174;-76
2021/06/18 12:05:09;;;;;;;17.42;15.52;;;26.60;99.90;;;;;;6173855;23;20190;-79
2021/06/18 12:07:36;;;;;;;21.00;19.13;;;26.70;99.90;;;;;;6173483;23;20193;-80
2021/06/18 12:10:04;;;;;;;21.35;19.15;;;26.50;99.90;;;;;;6172689;23;20439;-80
2021/06/18 12:12:44;;;;;;;22.08;20.00;;;26.50;99.90;;;;;;6175836;23;20171;-87
2021/06/18 12:15:19;;;;;;;20.60;18.75;;;26.70;99.90;;;;;;6175369;23;20185;-83
2021/06/18 12:17:58;;;;;;;23.23;21.20;;;26.80;99.90;;;;;;6175556;23;20166;-79
2021/06/18 12:20:27;;;;;;;24.40;22.13;;;27.00;99.90;;;;;;6178841;23;20889;-81
2021/06/18 12:22:54;;;;;;;24.92;22.63;;;26.80;99.90;;;;;;6178155;23;20178;-81
2021/06/18 12:25:22;;;;;;;25.27;22.83;;;26.90;99.90;;;;;;6178957;23;20181;-83
2021/06/18 12:27:54;;;;;;;23.90;21.58;;;26.90;99.90;;;;;;6176644;23;20190;-76
2021/06/18 12:30:23;;;;;;;23.70;21.52;;;27.00;99.90;;;;;;6175886;23;20163;-81
2021/06/18 12:32:52;;;;;;;27.77;25.17;;;27.20;99.90;;;;;;6175093;23;20174;-80
2021/06/18 12:35:22;;;;;;;29.17;26.35;;;27.20;99.90;;;;;;6175073;23;20502;-82
2021/06/18 12:37:51;;;;;;;26.30;24.00;;;27.10;99.90;;;;;;6174578;23;20183;-81
2021/06/18 12:40:22;;;;;;;26.77;24.17;;;27.30;99.90;;;;;;6175734;23;20473;-79
2021/06/18 12:42:51;;;;;;;21.92;19.70;;;27.40;99.90;;;;;;6175799;23;20213;-79
2021/06/18 12:45:20;;;;;;;27.45;24.85;;;27.40;99.90;;;;;;6176969;23;20175;-82
2021/06/18 12:47:51;;;;;;;26.73;24.33;;;27.50;99.90;;;;;;6174641;23;20195;-79